Terminal Aerodrome Forecast
Issued by NWS

Home | Current Version | Previous Version | Text Only | Print | Product List | Glossary On
Versions: 1 2 3 4 5 6 7 8 9 10 11 12 13 14 15 16 17 18 19 20 21 22 23 24 25 26 27 28 29 30 31 32 33 34 35 36 37 38 39 40 41 42
828
FTUS42 KMLB 170650 AAA
TAFFPR
TAF AMD
KFPR 170650Z 1707/1806 30011KT P6SM BKN008 OVC012
      TEMPO 1712/1716 SCT015 BKN020
     FM171600 33012G18KT P6SM SCT015 BKN025
     FM172200 33011KT P6SM SCT030 BKN050
     FM180100 32007KT P6SM SCT020 SCT250=

USA.gov is the U.S. government's official web portal to all federal, state and local government web resources and services.